createdAt,value
2022-08-02T00:00:12.846Z,15.88
2022-08-02T00:03:14.472Z,15.74
2022-08-02T00:06:16.621Z,15.77
2022-08-02T00:09:18.092Z,15.70
2022-08-02T00:12:22.784Z,15.72
2022-08-02T00:15:24.219Z,15.69
2022-08-02T00:18:25.664Z,15.59
2022-08-02T00:21:27.084Z,15.59
2022-08-02T00:24:30.588Z,15.48
2022-08-02T00:27:32.497Z,15.39
2022-08-02T00:30:33.905Z,15.34
2022-08-02T00:34:26.193Z,15.34
2022-08-02T00:36:56.768Z,15.31
2022-08-02T00:39:58.203Z,15.25
2022-08-02T00:43:04.311Z,15.31
2022-08-02T00:46:05.888Z,15.35
2022-08-02T00:49:07.351Z,15.29
2022-08-02T00:52:09.187Z,15.35
2022-08-02T00:55:10.829Z,15.39
2022-08-02T00:58:13.227Z,15.37
2022-08-02T01:01:15.078Z,15.29
2022-08-02T01:04:16.533Z,15.22
2022-08-02T01:07:32.564Z,15.18
2022-08-02T01:10:33.991Z,15.12
2022-08-02T01:13:35.426Z,15.12
2022-08-02T01:16:39.507Z,15.06
2022-08-02T01:19:47.456Z,15.00
2022-08-02T01:23:02.857Z,15.13
2022-08-02T01:26:09.830Z,15.15
2022-08-02T01:29:27.127Z,15.12
2022-08-02T01:32:29.722Z,15.06
2022-08-02T01:35:50.570Z,15.02
2022-08-02T01:38:53.350Z,15.00
2022-08-02T01:41:57.386Z,15.01
2022-08-02T01:45:00.571Z,15.12
2022-08-02T01:48:02.053Z,15.20
2022-08-02T01:51:03.462Z,15.16
2022-08-02T01:54:04.945Z,15.07
2022-08-02T01:57:06.622Z,15.08
2022-08-02T02:00:09.149Z,15.00
2022-08-02T02:03:11.729Z,15.00
2022-08-02T02:06:14.244Z,15.03
2022-08-02T02:09:15.650Z,15.02
2022-08-02T02:12:17.419Z,14.95
2022-08-02T02:15:19.156Z,14.72
2022-08-02T02:18:21.881Z,14.69
2022-08-02T02:21:23.284Z,14.62
2022-08-02T02:24:24.721Z,14.67
2022-08-02T02:27:26.391Z,14.72
2022-08-02T02:30:27.942Z,14.63
2022-08-02T02:33:30.346Z,14.62
2022-08-02T02:36:31.732Z,14.61
2022-08-02T02:39:33.159Z,14.60
2022-08-02T02:42:34.589Z,14.44
2022-08-02T02:45:36.013Z,14.38
2022-08-02T02:48:37.455Z,14.27
2022-08-02T02:51:41.879Z,14.23
2022-08-02T02:54:44.063Z,14.24
2022-08-02T02:57:45.545Z,14.26
2022-08-02T03:01:05.640Z,14.31
2022-08-02T03:04:07.608Z,14.37
2022-08-02T03:07:09.380Z,14.40
2022-08-02T03:10:10.887Z,14.36
2022-08-02T03:13:12.460Z,14.11
2022-08-02T03:16:14.310Z,14.13
2022-08-02T03:19:15.901Z,14.14
2022-08-02T03:22:17.338Z,14.17
2022-08-02T03:25:18.793Z,14.11
2022-08-02T03:28:20.212Z,14.08
2022-08-02T03:31:21.634Z,14.15
2022-08-02T03:34:23.171Z,14.15
2022-08-02T03:37:24.567Z,14.14
2022-08-02T03:40:26.032Z,13.99
2022-08-02T03:43:28.862Z,13.92
2022-08-02T03:46:30.379Z,13.91
2022-08-02T03:49:32.201Z,13.84
2022-08-02T03:52:33.677Z,13.70
2022-08-02T03:55:35.283Z,13.67
2022-08-02T03:58:36.733Z,13.69
2022-08-02T04:01:38.222Z,13.69
2022-08-02T04:04:39.732Z,13.66
2022-08-02T04:08:02.715Z,13.61
2022-08-02T04:11:21.033Z,13.63
2022-08-02T04:14:22.437Z,13.64
2022-08-02T04:17:23.882Z,13.54
2022-08-02T04:20:27.663Z,13.50
2022-08-02T04:23:29.512Z,13.53
2022-08-02T04:26:32.612Z,13.59
2022-08-02T04:29:34.801Z,13.69
2022-08-02T04:32:36.210Z,13.79
2022-08-02T04:35:37.634Z,13.82
2022-08-02T04:38:39.092Z,13.82
2022-08-02T04:41:44.019Z,13.82
2022-08-02T04:44:45.839Z,13.87
2022-08-02T04:47:54.206Z,13.84
2022-08-02T04:51:03.266Z,13.81
2022-08-02T04:54:09.295Z,13.91
2022-08-02T04:57:30.407Z,13.96
2022-08-02T05:00:32.757Z,13.94
2022-08-02T05:03:34.310Z,14.01
2022-08-02T05:06:35.711Z,14.01
2022-08-02T05:09:37.145Z,14.11
2022-08-02T05:12:38.925Z,14.21
2022-08-02T05:15:40.409Z,14.31
2022-08-02T05:18:41.836Z,14.43
2022-08-02T05:21:43.706Z,14.58
2022-08-02T05:24:45.106Z,14.67
2022-08-02T05:27:46.870Z,14.74
2022-08-02T05:30:48.292Z,14.78
2022-08-02T05:33:51.531Z,14.90
2022-08-02T05:36:52.932Z,15.09
2022-08-02T05:39:55.871Z,15.18
2022-08-02T05:42:57.762Z,15.25
2022-08-02T05:45:59.221Z,15.38
2022-08-02T05:49:01.491Z,15.47
2022-08-02T05:52:10.726Z,15.53
2022-08-02T05:55:13.530Z,15.61
2022-08-02T05:58:23.403Z,15.75
2022-08-02T06:01:29.298Z,15.90
2022-08-02T06:04:34.676Z,15.97
2022-08-02T06:07:36.398Z,16.03
2022-08-02T06:10:38.467Z,16.03
2022-08-02T06:13:40.192Z,16.10
2022-08-02T06:16:42.525Z,16.15
2022-08-02T06:19:51.040Z,16.12
2022-08-02T06:22:52.725Z,16.12
2022-08-02T06:25:54.129Z,16.12
2022-08-02T06:28:57.107Z,16.15
2022-08-02T06:31:58.542Z,16.29
2022-08-02T06:35:00.160Z,16.31
2022-08-02T06:38:02.462Z,16.37
2022-08-02T06:41:07.616Z,16.51
2022-08-02T06:44:44.815Z,16.61
2022-08-02T06:47:32.070Z,16.78
2022-08-02T06:50:33.473Z,16.91
2022-08-02T06:53:34.901Z,17.05
2022-08-02T06:56:36.288Z,17.22
2022-08-02T06:59:38.251Z,17.35
2022-08-02T07:02:39.919Z,17.44
2022-08-02T07:05:41.591Z,17.55
2022-08-02T07:08:54.788Z,17.66
2022-08-02T07:12:04.595Z,17.91
2022-08-02T07:15:06.445Z,18.13
2022-08-02T07:18:07.946Z,18.45
2022-08-02T07:21:09.677Z,18.69
2022-08-02T07:24:11.103Z,18.87
2022-08-02T07:27:13.151Z,19.18
2022-08-02T07:30:15.435Z,19.42
2022-08-02T07:33:37.976Z,19.82
2022-08-02T07:36:38.485Z,20.24
2022-08-02T07:39:39.902Z,20.54
2022-08-02T07:42:45.817Z,20.78
2022-08-02T07:45:57.195Z,20.86
2022-08-02T07:49:02.404Z,20.97
2022-08-02T07:52:04.562Z,21.13
2022-08-02T07:55:06.089Z,21.33
2022-08-02T07:58:11.978Z,21.46
2022-08-02T08:01:14.761Z,21.53
2022-08-02T08:04:16.385Z,21.73
2022-08-02T08:07:17.840Z,21.80
2022-08-02T08:10:19.369Z,22.04
2022-08-02T08:13:20.799Z,22.05
2022-08-02T08:16:22.296Z,22.02
2022-08-02T08:19:50.601Z,22.02
2022-08-02T08:22:45.375Z,21.98
2022-08-02T08:25:46.856Z,22.56
2022-08-02T08:28:48.274Z,22.77
2022-08-02T08:31:49.762Z,22.69
2022-08-02T08:34:51.408Z,23.09
2022-08-02T08:37:52.790Z,22.99
2022-08-02T08:40:54.190Z,23.36
2022-08-02T08:43:55.667Z,23.93
2022-08-02T08:46:57.102Z,24.70
2022-08-02T08:49:58.598Z,24.38
2022-08-02T08:53:04.994Z,24.36
2022-08-02T08:56:06.415Z,24.28
2022-08-02T08:59:07.960Z,24.41
2022-08-02T09:02:20.531Z,24.48
2022-08-02T09:05:23.435Z,24.59
2022-08-02T09:08:25.278Z,24.82
2022-08-02T09:11:29.738Z,24.60
2022-08-02T09:14:32.827Z,24.67
2022-08-02T09:17:34.223Z,24.75
2022-08-02T09:20:36.027Z,24.62
2022-08-02T09:23:41.175Z,24.94
2022-08-02T09:26:42.589Z,25.13
2022-08-02T09:30:11.631Z,25.35
2022-08-02T09:33:09.335Z,25.32
2022-08-02T09:36:14.143Z,25.66
2022-08-02T09:39:15.684Z,25.91
2022-08-02T09:42:17.099Z,26.25
2022-08-02T09:45:18.516Z,26.27
2022-08-02T09:48:19.939Z,26.02
2022-08-02T09:51:21.390Z,25.67
2022-08-02T09:54:26.457Z,25.80
2022-08-02T09:57:28.388Z,25.84
2022-08-02T10:00:50.733Z,25.81
2022-08-02T10:03:54.918Z,26.10
2022-08-02T10:06:56.314Z,25.87
2022-08-02T10:09:57.713Z,25.90
2022-08-02T10:12:59.100Z,26.76
2022-08-02T10:16:00.657Z,26.79
2022-08-02T10:19:04.523Z,26.53
2022-08-02T10:22:07.047Z,26.47
2022-08-02T10:25:08.744Z,26.90
2022-08-02T10:28:10.683Z,26.71
2022-08-02T10:31:14.736Z,26.83
2022-08-02T10:34:18.355Z,27.09
2022-08-02T10:37:19.858Z,26.94
2022-08-02T10:40:24.329Z,27.32
2022-08-02T10:43:31.586Z,26.90
2022-08-02T10:46:33.805Z,26.82
2022-08-02T10:49:40.112Z,26.65
2022-08-02T10:52:42.224Z,26.83
2022-08-02T10:55:45.978Z,26.78
2022-08-02T10:58:47.916Z,27.06
2022-08-02T11:01:49.301Z,27.20
2022-08-02T11:04:50.646Z,27.08
2022-08-02T11:07:52.157Z,27.78
2022-08-02T11:10:57.521Z,27.42
2022-08-02T11:14:02.874Z,27.50
2022-08-02T11:17:05.868Z,27.69
2022-08-02T11:20:13.053Z,27.98
2022-08-02T11:23:44.982Z,28.05
2022-08-02T11:26:47.446Z,27.94
2022-08-02T11:29:49.723Z,27.77
2022-08-02T11:32:51.189Z,27.79
2022-08-02T11:35:52.663Z,27.79
2022-08-02T11:39:12.787Z,27.67
2022-08-02T11:42:17.416Z,27.88
2022-08-02T11:45:20.988Z,28.34
2022-08-02T11:48:49.721Z,28.39
2022-08-02T11:52:01.759Z,28.35
2022-08-02T11:55:03.439Z,28.66
2022-08-02T11:58:05.908Z,28.90
2022-08-02T12:01:07.742Z,28.77
2022-08-02T12:04:10.313Z,28.83
2022-08-02T12:07:11.782Z,28.88
2022-08-02T12:10:19.192Z,28.48
2022-08-02T12:13:20.901Z,28.52
2022-08-02T12:16:41.156Z,28.53
2022-08-02T12:19:42.708Z,28.69
2022-08-02T12:22:44.197Z,28.85
2022-08-02T12:25:45.615Z,29.01
2022-08-02T12:28:47.049Z,28.64
2022-08-02T12:31:57.285Z,29.06
2022-08-02T12:35:03.728Z,28.86
2022-08-02T12:38:09.089Z,29.36
2022-08-02T12:41:30.426Z,29.15
2022-08-02T12:44:33.778Z,29.16
2022-08-02T12:47:37.479Z,28.55
2022-08-02T12:50:39.352Z,28.60
2022-08-02T12:53:40.770Z,28.55
2022-08-02T12:56:42.206Z,28.29
2022-08-02T12:59:45.181Z,28.84
2022-08-02T13:02:48.103Z,29.61
2022-08-02T13:05:56.550Z,29.30
2022-08-02T13:08:59.439Z,29.28
2022-08-02T13:12:00.903Z,29.30
2022-08-02T13:15:02.312Z,29.13
2022-08-02T13:18:04.076Z,29.27
2022-08-02T13:21:06.882Z,29.22
2022-08-02T13:24:27.409Z,29.24
2022-08-02T13:28:49.177Z,29.22
2022-08-02T13:31:50.768Z,30.29
2022-08-02T13:34:52.378Z,30.18
2022-08-02T13:37:53.911Z,29.86
2022-08-02T13:41:10.513Z,29.92
2022-08-02T13:44:12.047Z,30.10
2022-08-02T13:47:13.699Z,29.13
2022-08-02T13:50:15.282Z,29.80
2022-08-02T13:53:16.927Z,30.64
2022-08-02T13:56:18.499Z,30.21
2022-08-02T13:59:54.449Z,30.49
2022-08-02T14:02:41.714Z,30.97
2022-08-02T14:05:47.144Z,30.60
2022-08-02T14:08:49.733Z,30.49
2022-08-02T14:11:51.350Z,31.08
2022-08-02T14:14:52.907Z,30.92
2022-08-02T14:17:54.489Z,30.20
2022-08-02T14:20:56.093Z,29.76
2022-08-02T14:23:58.099Z,29.49
2022-08-02T14:26:59.683Z,29.88
2022-08-02T14:30:01.303Z,30.05
2022-08-02T14:33:04.101Z,29.89
2022-08-02T14:36:06.082Z,29.63
2022-08-02T14:39:07.656Z,29.62
2022-08-02T14:42:09.207Z,29.54
2022-08-02T14:45:10.833Z,29.58
2022-08-02T14:48:12.541Z,29.41
2022-08-02T14:51:14.497Z,29.40
2022-08-02T14:54:16.078Z,29.33
2022-08-02T14:57:19.834Z,29.26
2022-08-02T15:00:21.438Z,29.37
2022-08-02T15:03:23.050Z,29.54
2022-08-02T15:06:24.673Z,29.42
2022-08-02T15:09:26.910Z,29.01
2022-08-02T15:12:28.550Z,29.37
2022-08-02T15:15:30.088Z,29.66
2022-08-02T15:18:31.630Z,29.63
2022-08-02T15:21:41.512Z,29.60
2022-08-02T15:24:48.952Z,29.34
2022-08-02T15:27:50.509Z,29.54
2022-08-02T15:30:52.117Z,29.57
2022-08-02T15:33:53.669Z,29.62
2022-08-02T15:36:55.697Z,29.56
2022-08-02T15:39:57.235Z,29.54
2022-08-02T15:42:58.902Z,29.67
2022-08-02T15:46:00.491Z,29.42
2022-08-02T15:49:02.037Z,29.78
2022-08-02T15:52:03.895Z,29.59
2022-08-02T15:55:06.704Z,29.61
2022-08-02T15:58:09.048Z,29.57
2022-08-02T16:01:19.115Z,29.54
2022-08-02T16:04:20.769Z,29.47
2022-08-02T16:07:22.316Z,29.11
2022-08-02T16:10:24.036Z,29.32
2022-08-02T16:13:53.301Z,29.53
2022-08-02T16:16:57.466Z,29.54
2022-08-02T16:19:59.100Z,29.64
2022-08-02T16:23:00.689Z,29.50
2022-08-02T16:26:06.132Z,29.37
2022-08-02T16:29:07.863Z,29.32
2022-08-02T16:32:09.547Z,29.25
2022-08-02T16:35:11.255Z,29.19
2022-08-02T16:38:12.847Z,29.10
2022-08-02T16:41:16.332Z,29.15
2022-08-02T16:44:18.074Z,29.19
2022-08-02T16:47:43.475Z,29.03
2022-08-02T16:50:51.193Z,28.91
2022-08-02T16:53:59.725Z,28.98
2022-08-02T16:57:03.333Z,28.98
2022-08-02T17:00:05.755Z,28.76
2022-08-02T17:03:13.069Z,28.64
2022-08-02T17:06:16.064Z,28.69
2022-08-02T17:10:04.199Z,28.63
2022-08-02T17:12:39.474Z,28.59
2022-08-02T17:16:16.092Z,28.52
2022-08-02T17:19:02.963Z,28.51
2022-08-02T17:22:04.518Z,28.44
2022-08-02T17:25:06.646Z,28.36
2022-08-02T17:28:12.820Z,28.31
2022-08-02T17:31:14.385Z,28.17
2022-08-02T17:34:17.709Z,28.12
2022-08-02T17:37:21.266Z,28.14
2022-08-02T17:43:44.390Z,27.86
2022-08-02T17:46:46.533Z,27.78
2022-08-02T17:49:50.328Z,27.77
2022-08-02T17:52:54.705Z,27.69
2022-08-02T17:55:56.663Z,27.59
2022-08-02T17:59:31.049Z,27.50
2022-08-02T18:02:42.976Z,27.39
2022-08-02T18:05:55.502Z,27.26
2022-08-02T18:08:57.573Z,27.15
2022-08-02T18:11:59.125Z,27.03
2022-08-02T18:15:00.664Z,26.93
2022-08-02T18:18:03.011Z,26.82
2022-08-02T18:21:15.953Z,26.64
2022-08-02T18:24:24.197Z,26.60
2022-08-02T18:27:25.814Z,26.53
2022-08-02T18:30:28.408Z,26.38
2022-08-02T18:33:55.093Z,26.05
2022-08-02T18:36:51.739Z,25.78
2022-08-02T18:39:53.359Z,25.54
2022-08-02T18:42:54.957Z,25.39
2022-08-02T18:46:05.178Z,25.26
2022-08-02T18:49:14.698Z,25.10
2022-08-02T18:52:30.800Z,24.99
2022-08-02T18:55:59.541Z,24.77
2022-08-02T18:58:55.248Z,24.44
2022-08-02T19:01:57.334Z,24.21
2022-08-02T19:05:00.540Z,24.07
2022-08-02T19:08:02.111Z,23.84
2022-08-02T19:11:04.777Z,23.77
2022-08-02T19:14:06.327Z,23.68
2022-08-02T19:17:15.730Z,23.50
2022-08-02T19:20:30.578Z,23.26
2022-08-02T19:23:32.177Z,23.15
2022-08-02T19:26:34.056Z,23.09
2022-08-02T19:29:42.672Z,22.92
2022-08-02T19:32:59.368Z,22.78
2022-08-02T19:36:03.785Z,22.52
2022-08-02T19:39:06.174Z,22.49
2022-08-02T19:42:08.041Z,22.48
2022-08-02T19:45:13.144Z,22.44
2022-08-02T19:48:16.087Z,22.17
2022-08-02T19:54:54.957Z,21.98
2022-08-02T19:57:57.720Z,21.83
2022-08-02T20:00:59.665Z,21.74
2022-08-02T20:04:01.210Z,21.75
2022-08-02T20:07:04.785Z,21.81
2022-08-02T20:13:30.658Z,21.82
2022-08-02T20:16:48.426Z,21.67
2022-08-02T20:19:52.259Z,21.58
2022-08-02T20:23:33.981Z,21.52
2022-08-02T20:26:35.459Z,21.59
2022-08-02T20:29:44.838Z,21.57
2022-08-02T20:32:53.013Z,21.35
2022-08-02T20:35:57.914Z,21.38
2022-08-02T20:38:59.769Z,21.31
2022-08-02T20:42:06.136Z,21.23
2022-08-02T20:45:22.747Z,21.04
2022-08-02T20:48:24.190Z,21.07
2022-08-02T20:54:53.093Z,20.84
2022-08-02T20:58:00.866Z,20.80
2022-08-02T21:01:03.279Z,20.75
2022-08-02T21:04:06.049Z,20.61
2022-08-02T21:07:07.958Z,20.50
2022-08-02T21:10:14.547Z,20.28
2022-08-02T21:13:19.079Z,20.21
2022-08-02T21:16:25.122Z,20.07
2022-08-02T21:19:26.958Z,20.09
2022-08-02T21:22:28.829Z,20.07
2022-08-02T21:25:50.760Z,19.89
2022-08-02T21:28:52.701Z,19.88
2022-08-02T21:31:54.968Z,19.75
2022-08-02T21:34:56.596Z,19.69
2022-08-02T21:37:58.470Z,19.53
2022-08-02T21:41:00.068Z,19.34
2022-08-02T21:44:05.460Z,19.22
2022-08-02T21:47:08.916Z,19.32
2022-08-02T21:50:15.857Z,19.29
2022-08-02T21:53:18.925Z,19.20
2022-08-02T21:56:39.586Z,19.13
2022-08-02T21:59:41.660Z,19.11
2022-08-02T22:02:47.030Z,19.05
2022-08-02T22:05:48.886Z,19.07
2022-08-02T22:08:52.333Z,19.08
2022-08-02T22:11:53.911Z,19.14
2022-08-02T22:14:56.633Z,19.21
2022-08-02T22:18:00.293Z,19.10
2022-08-02T22:21:01.961Z,19.01
2022-08-02T22:24:18.697Z,18.88
2022-08-02T22:27:21.212Z,18.82
2022-08-02T22:30:22.758Z,18.71
2022-08-02T22:34:00.378Z,18.65
2022-08-02T22:37:07.261Z,18.57
2022-08-02T22:40:09.874Z,18.42
2022-08-02T22:43:12.329Z,18.31
2022-08-02T22:46:26.434Z,18.28
2022-08-02T22:49:38.068Z,18.34
2022-08-02T22:52:50.343Z,18.27
2022-08-02T22:55:52.120Z,18.25
2022-08-02T22:58:39.642Z,28.01
2022-08-02T22:58:54.798Z,21.87
2022-08-02T22:59:05.810Z,20.93
2022-08-02T22:59:07.050Z,22.06
2022-08-02T23:02:15.422Z,18.22
2022-08-02T23:05:20.684Z,18.26
2022-08-02T23:08:22.329Z,18.30
2022-08-02T23:11:23.901Z,18.29
2022-08-02T23:14:25.454Z,18.18
2022-08-02T23:17:45.627Z,17.93
2022-08-02T23:20:47.173Z,17.87
2022-08-02T23:23:48.721Z,17.74
2022-08-02T23:26:50.335Z,17.74
2022-08-02T23:29:51.882Z,17.73
2022-08-02T23:32:53.442Z,17.61
2022-08-02T23:35:55.051Z,17.48
2022-08-02T23:38:56.816Z,17.40
2022-08-02T23:41:58.392Z,17.33
2022-08-02T23:44:59.955Z,17.33
2022-08-02T23:48:01.549Z,17.38
2022-08-02T23:51:03.199Z,17.35
2022-08-02T23:54:04.792Z,17.25
2022-08-02T23:57:20.719Z,17.21
